Time;durP1;ratioP1;P1;durP2;ratioP2;P2;SDS_P1;SDS_P2;PMS_P1;PMS_P2;Temp;Humidity;BMP_temperature;BMP_pressure;BME280_temperature;BME280_humidity;BME280_pressure;Samples;Min_cycle;Max_cycle;Signal;HPM_P1;HPM_P2
2022/01/19 06:33:32;;;;;;;6.40;3.60;;;;;;;0.55;75.54;101361.78;4985496;28;106325;-63
2022/01/19 06:35:57;;;;;;;9.50;3.65;;;;;;;0.56;75.79;101372.22;4985521;28;105793;-64
2022/01/19 06:38:22;;;;;;;9.40;5.18;;;;;;;0.57;75.80;101366.03;4984579;28;105915;-64
2022/01/19 06:40:48;;;;;;;15.82;5.10;;;;;;;0.64;76.85;101361.34;4984977;28;105931;-64
2022/01/19 06:43:13;;;;;;;13.38;5.85;;;;;;;0.70;76.51;101357.56;4985019;28;106024;-65
2022/01/19 06:45:39;;;;;;;5.57;3.47;;;;;;;0.72;76.46;101348.69;4985574;28;106360;-64
2022/01/19 06:48:04;;;;;;;11.60;6.38;;;;;;;0.73;76.23;101349.56;4985086;28;106204;-63
2022/01/19 06:50:31;;;;;;;6.70;4.03;;;;;;;0.76;76.33;101357.25;4984413;28;106112;-65
2022/01/19 06:52:57;;;;;;;10.60;5.95;;;;;;;0.78;76.82;101347.50;4984628;28;106035;-65
2022/01/19 06:55:22;;;;;;;12.35;5.28;;;;;;;0.79;76.46;101342.22;4985414;28;106132;-66
2022/01/19 06:57:49;;;;;;;13.90;7.15;;;;;;;0.79;76.15;101344.84;4985030;28;106289;-66
2022/01/19 07:00:15;;;;;;;15.35;7.65;;;;;;;0.79;76.00;101339.59;4984723;28;105830;-65
2022/01/19 07:02:40;;;;;;;17.35;6.88;;;;;;;0.80;76.44;101335.19;4984493;28;105949;-67
2022/01/19 07:05:06;;;;;;;15.88;7.57;;;;;;;0.82;76.08;101333.31;4985281;28;105927;-70
2022/01/19 07:07:31;;;;;;;15.88;7.53;;;;;;;0.84;76.09;101332.31;4984632;28;106133;-65
2022/01/19 07:09:57;;;;;;;13.20;6.93;;;;;;;0.89;75.85;101331.22;4978404;28;106130;-69
2022/01/19 07:12:23;;;;;;;13.25;5.82;;;;;;;0.91;76.12;101335.47;4971609;28;106494;-67
2022/01/19 07:14:48;;;;;;;13.57;6.75;;;;;;;0.95;76.57;101334.38;4966927;28;105922;-66
2022/01/19 07:17:14;;;;;;;16.10;8.32;;;;;;;1.03;76.22;101327.91;4964782;28;106156;-65
2022/01/19 07:19:39;;;;;;;15.00;6.50;;;;;;;1.07;76.11;101327.66;4964439;28;105955;-66
2022/01/19 07:22:05;;;;;;;15.88;8.82;;;;;;;1.15;76.37;101330.72;4964548;28;105908;-67
2022/01/19 07:24:30;;;;;;;15.52;7.13;;;;;;;1.17;75.83;101325.38;4965280;28;105898;-65
2022/01/19 07:26:56;;;;;;;16.67;7.78;;;;;;;1.19;75.69;101320.91;4963491;28;105979;-64
2022/01/19 07:29:21;;;;;;;18.00;8.68;;;;;;;1.20;75.50;101317.34;4962259;28;106049;-65
2022/01/19 07:31:46;;;;;;;16.98;7.88;;;;;;;1.22;75.41;101315.50;4961609;28;106007;-65
2022/01/19 07:34:12;;;;;;;17.40;8.30;;;;;;;1.28;75.84;101317.78;4962931;28;106025;-66
2022/01/19 07:36:37;;;;;;;19.30;8.95;;;;;;;1.35;75.88;101306.03;4961730;28;106372;-65
2022/01/19 07:39:03;;;;;;;14.00;8.85;;;;;;;1.44;75.75;101309.94;4961441;28;106669;-67
2022/01/19 07:41:29;;;;;;;14.63;7.25;;;;;;;1.54;75.85;101301.53;4962404;28;106019;-65
2022/01/19 07:43:54;;;;;;;18.42;9.35;;;;;;;1.61;75.74;101297.63;4957087;28;105814;-66
2022/01/19 07:46:20;;;;;;;18.20;8.48;;;;;;;1.66;75.72;101293.81;4951673;28;105910;-66
2022/01/19 07:48:45;;;;;;;19.05;8.20;;;;;;;1.74;75.91;101295.19;4950823;28;107784;-63
2022/01/19 07:51:11;;;;;;;17.52;8.65;;;;;;;1.83;75.37;101294.66;4950621;28;106028;-65
2022/01/19 07:53:36;;;;;;;14.23;8.23;;;;;;;1.91;75.35;101284.56;4951493;28;106030;-67
2022/01/19 07:56:05;;;;;;;18.13;8.27;;;;;;;2.08;75.77;101285.38;4950653;28;106290;-65
2022/01/19 07:58:31;;;;;;;13.27;7.43;;;;;;;2.19;75.44;101288.25;4950348;28;106183;-65
2022/01/19 08:00:56;;;;;;;16.67;7.47;;;;;;;2.31;75.22;101273.53;4949144;28;106277;-65
2022/01/19 08:03:22;;;;;;;17.38;8.07;;;;;;;2.49;75.18;101263.72;4951162;28;105899;-65
2022/01/19 08:05:48;;;;;;;20.92;8.40;;;;;;;2.85;74.66;101265.06;4950978;28;105994;-63
2022/01/19 08:08:14;;;;;;;19.35;8.82;;;;;;;3.31;73.74;101262.19;4950733;28;106895;-62
2022/01/19 08:10:42;;;;;;;15.60;7.63;;;;;;;3.82;73.43;101272.13;4949942;28;106069;-65
2022/01/19 08:13:08;;;;;;;16.95;8.48;;;;;;;4.43;73.06;101273.44;4954084;28;105916;-63
2022/01/19 08:15:33;;;;;;;13.93;7.50;;;;;;;5.11;72.46;101261.69;4956516;28;106150;-67
2022/01/19 08:17:59;;;;;;;15.77;7.82;;;;;;;5.66;72.12;101267.47;4959262;28;107066;-65
2022/01/19 08:20:24;;;;;;;13.60;7.68;;;;;;;5.59;69.93;101253.00;4958764;28;106067;-65
2022/01/19 08:22:49;;;;;;;16.75;7.38;;;;;;;5.35;69.36;101255.63;4955204;28;105966;-66
2022/01/19 08:25:15;;;;;;;13.80;7.00;;;;;;;5.49;70.00;101258.09;4950461;28;106314;-65
2022/01/19 08:27:40;;;;;;;15.27;8.02;;;;;;;5.97;70.54;101256.44;4949892;28;106031;-67
2022/01/19 08:30:09;;;;;;;15.30;8.00;;;;;;;6.23;68.58;101247.44;4950136;28;105985;-65
2022/01/19 08:32:35;;;;;;;18.95;7.55;;;;;;;6.30;68.16;101245.16;4950112;28;105889;-64
2022/01/19 08:35:02;;;;;;;16.77;8.52;;;;;;;6.77;69.34;101240.66;4950533;28;106050;-68
2022/01/19 08:37:28;;;;;;;20.15;8.43;;;;;;;7.30;68.31;101241.84;4948970;28;107696;-67
2022/01/19 08:39:53;;;;;;;15.75;7.75;;;;;;;7.92;67.54;101237.66;4950225;28;106198;-67
2022/01/19 08:42:19;;;;;;;13.52;7.40;;;;;;;9.16;68.21;101232.50;4951038;28;106553;-65
2022/01/19 08:44:44;;;;;;;15.85;8.43;;;;;;;10.00;67.92;101215.22;4950251;28;105952;-69
2022/01/19 08:47:10;;;;;;;9.98;6.60;;;;;;;10.66;66.12;101219.78;4950162;28;106041;-66
2022/01/19 08:49:35;;;;;;;16.80;8.32;;;;;;;11.25;64.02;101218.63;4950267;28;106080;-66
2022/01/19 08:52:03;;;;;;;13.98;7.85;;;;;;;11.92;64.58;101207.63;4950987;28;105870;-69
2022/01/19 08:54:29;;;;;;;12.90;7.82;;;;;;;12.78;60.16;101206.03;4949878;28;106163;-71
2022/01/19 08:56:54;;;;;;;18.55;8.57;;;;;;;13.21;58.48;101201.53;4947543;28;106732;-68
2022/01/19 08:59:20;;;;;;;14.57;7.60;;;;;;;13.69;58.99;101199.16;4949934;28;106256;-67
2022/01/19 09:01:45;;;;;;;15.50;7.28;;;;;;;13.93;56.66;101208.19;4951174;28;105802;-67
2022/01/19 09:04:11;;;;;;;10.77;6.18;;;;;;;14.20;55.72;101197.13;4950381;28;105798;-65
2022/01/19 09:06:36;;;;;;;13.48;7.07;;;;;;;14.50;55.10;101209.97;4949832;28;106564;-64
2022/01/19 09:09:02;;;;;;;13.88;7.13;;;;;;;14.60;52.78;101210.63;4949627;28;108648;-65
2022/01/19 09:11:28;;;;;;;11.80;7.45;;;;;;;14.65;51.09;101202.09;4950101;28;105934;-64
2022/01/19 09:13:53;;;;;;;15.00;7.95;;;;;;;14.41;50.62;101186.88;4949604;28;106524;-63
2022/01/19 09:16:19;;;;;;;14.18;8.10;;;;;;;13.50;50.32;101185.06;4949358;28;106151;-63
2022/01/19 09:18:44;;;;;;;16.63;8.05;;;;;;;13.28;50.31;101189.16;4949100;28;106003;-65
2022/01/19 09:21:10;;;;;;;16.65;8.35;;;;;;;13.37;52.21;101198.09;4949710;28;106135;-64
2022/01/19 09:23:37;;;;;;;17.13;9.00;;;;;;;14.09;50.54;101186.75;4949428;28;105861;-65
2022/01/19 09:26:03;;;;;;;15.38;8.60;;;;;;;14.47;50.71;101180.84;4948788;28;106196;-64
2022/01/19 09:28:28;;;;;;;16.10;9.07;;;;;;;15.00;50.79;101181.19;4948786;28;106168;-66
2022/01/19 09:30:54;;;;;;;15.77;9.43;;;;;;;15.83;51.10;101174.28;4950200;28;106046;-64
2022/01/19 09:33:20;;;;;;;17.27;9.05;;;;;;;15.92;47.99;101179.59;4948328;28;106294;-65
2022/01/19 09:38:20;;;;;;;17.10;9.20;;;;;;;17.16;46.70;101168.31;4947380;28;106071;-64
2022/01/19 09:40:46;;;;;;;14.00;7.28;;;;;;;17.91;44.56;101166.97;4948388;28;106030;-75
2022/01/19 09:43:11;;;;;;;11.77;6.63;;;;;;;18.29;42.21;101164.97;4948400;28;106310;-68
2022/01/19 09:45:37;;;;;;;13.85;7.22;;;;;;;19.03;42.13;101164.34;4946730;28;106079;-65
2022/01/19 09:48:03;;;;;;;13.23;6.75;;;;;;;20.10;41.01;101159.06;4946912;28;106247;-73
2022/01/19 09:50:29;;;;;;;11.90;6.57;;;;;;;20.86;36.67;101150.56;4948134;28;106014;-72
2022/01/19 09:52:54;;;;;;;12.85;7.22;;;;;;;21.57;35.67;101141.44;4947480;28;106011;-71
2022/01/19 09:55:20;;;;;;;13.23;7.65;;;;;;;21.38;34.29;101142.34;4947400;28;106549;-70
2022/01/19 09:57:45;;;;;;;14.90;7.22;;;;;;;21.18;32.26;101134.38;4947343;28;106520;-70
2022/01/19 10:00:11;;;;;;;9.10;6.35;;;;;;;21.70;31.22;101128.81;4950020;28;105846;-71
2022/01/19 10:02:36;;;;;;;12.05;7.60;;;;;;;22.11;31.72;101128.22;4949398;28;106226;-71
2022/01/19 10:05:07;;;;;;;12.70;7.18;;;;;;;22.43;31.34;101124.56;4948473;28;106042;-72
2022/01/19 10:07:32;;;;;;;12.73;9.73;;;;;;;22.59;29.59;101129.38;4948901;28;106244;-72
2022/01/19 10:10:06;;;;;;;12.18;8.95;;;;;;;23.48;29.23;101106.22;4949645;28;105829;-72
2022/01/19 10:18:18;;;;;;;11.57;7.70;;;;;;;25.38;25.55;101092.22;4968768;28;106335;-74
2022/01/19 10:20:46;;;;;;;11.90;7.70;;;;;;;26.02;24.31;101081.75;4969412;28;106361;-72
2022/01/19 10:23:37;;;;;;;10.88;7.03;;;;;;;26.37;23.69;101096.16;4969135;28;105843;-73
2022/01/19 10:26:05;;;;;;;10.30;6.72;;;;;;;26.10;23.51;101096.06;4968447;28;105919;-74
2022/01/19 10:28:31;;;;;;;7.55;5.50;;;;;;;26.17;22.74;101091.25;4969045;28;105898;-74
2022/01/19 10:30:59;;;;;;;11.02;6.20;;;;;;;25.97;23.20;101087.16;4970632;28;105719;-73
2022/01/19 10:33:25;;;;;;;9.98;5.60;;;;;;;25.55;22.02;101082.16;4967592;28;106046;-71
2022/01/19 10:35:50;;;;;;;8.75;6.13;;;;;;;25.25;22.27;101074.28;4968539;28;106051;-66
2022/01/19 10:38:28;;;;;;;8.63;6.15;;;;;;;25.16;22.31;101065.66;4966352;28;105995;-67
2022/01/19 10:40:57;;;;;;;9.20;6.15;;;;;;;24.70;21.77;101057.50;4959706;28;106164;-69
2022/01/19 10:43:29;;;;;;;9.73;6.10;;;;;;;24.52;22.51;101055.75;4962567;28;106176;-66
2022/01/19 10:45:56;;;;;;;11.85;6.05;;;;;;;24.72;22.38;101049.91;4948015;28;105867;-70
2022/01/19 10:48:38;;;;;;;8.45;6.20;;;;;;;25.68;21.04;101040.91;4947594;28;105858;-66
2022/01/19 10:51:07;;;;;;;9.63;6.53;;;;;;;25.85;21.20;101018.19;4948732;28;105863;-67
2022/01/19 10:53:33;;;;;;;10.63;6.63;;;;;;;26.60;20.74;101004.91;4948077;28;106326;-64
2022/01/19 10:55:58;;;;;;;10.55;6.18;;;;;;;26.91;19.98;101018.06;4947735;28;106057;-65
2022/01/19 10:58:23;;;;;;;11.05;7.10;;;;;;;26.64;20.27;101008.75;4947708;28;106047;-68
2022/01/19 11:00:51;;;;;;;10.95;7.38;;;;;;;26.69;20.47;101000.59;4948446;28;106421;-68
2022/01/19 11:03:23;;;;;;;10.73;6.47;;;;;;;27.56;19.57;100994.22;4947811;28;106284;-66
2022/01/19 11:06:01;;;;;;;11.10;6.97;;;;;;;28.14;18.79;100987.94;4956555;28;106492;-68
2022/01/19 11:08:29;;;;;;;8.55;5.97;;;;;;;27.78;19.27;100983.13;4967200;28;105978;-67
2022/01/19 11:10:56;;;;;;;10.48;6.22;;;;;;;28.07;18.86;100979.16;4968293;28;105962;-69
2022/01/19 11:13:28;;;;;;;10.65;5.75;;;;;;;27.64;19.13;100965.50;4967535;28;106168;-67
2022/01/19 11:15:55;;;;;;;9.77;5.65;;;;;;;28.13;18.91;100958.91;4967026;28;106742;-65
2022/01/19 11:18:22;;;;;;;8.52;5.15;;;;;;;27.48;18.71;100950.94;4967709;28;106257;-69
2022/01/19 11:20:49;;;;;;;7.78;5.57;;;;;;;26.41;19.32;100943.50;4971209;28;106390;-65
2022/01/19 11:23:34;;;;;;;9.13;5.53;;;;;;;26.42;19.43;100931.50;4970887;28;106942;-68
2022/01/19 11:26:31;;;;;;;10.15;6.10;;;;;;;26.12;19.66;100927.34;4970057;28;106880;-69
2022/01/19 11:29:18;;;;;;;8.23;5.32;;;;;;;25.55;19.88;100913.03;4968452;28;106300;-69
2022/01/19 11:31:43;;;;;;;8.60;5.05;;;;;;;25.18;20.13;100916.31;4971214;28;106259;-69
2022/01/19 11:34:09;;;;;;;9.05;5.32;;;;;;;24.28;20.03;100918.88;4970838;28;106212;-69
2022/01/19 11:36:40;;;;;;;8.75;5.57;;;;;;;23.89;20.80;100918.69;4970122;28;106244;-68
2022/01/19 11:39:08;;;;;;;9.07;6.07;;;;;;;24.20;20.20;100906.47;4970452;28;106233;-70
2022/01/19 11:41:34;;;;;;;8.27;5.97;;;;;;;25.20;20.20;100908.69;4971245;28;106164;-68
2022/01/19 11:43:59;;;;;;;8.30;5.53;;;;;;;26.11;19.28;100901.97;4970549;28;105703;-69
2022/01/19 11:46:34;;;;;;;11.13;5.85;;;;;;;25.92;19.60;100884.28;4970411;28;105875;-68
2022/01/19 11:49:02;;;;;;;7.93;5.50;;;;;;;26.22;19.44;100875.59;4970300;28;106034;-68
2022/01/19 11:51:34;;;;;;;6.95;5.30;;;;;;;27.06;18.71;100878.72;4970980;28;105921;-68
2022/01/19 11:54:06;;;;;;;9.02;5.90;;;;;;;26.66;18.56;100867.22;4970473;28;106531;-70
2022/01/19 11:56:33;;;;;;;11.02;6.13;;;;;;;27.07;18.62;100872.19;4970542;28;106016;-66
2022/01/19 11:59:03;;;;;;;8.77;6.30;;;;;;;27.17;18.63;100858.59;4969897;28;106056;-66
2022/01/19 12:01:28;;;;;;;7.88;5.78;;;;;;;27.43;18.15;100858.72;4970505;28;105931;-66
2022/01/19 12:04:12;;;;;;;9.55;6.50;;;;;;;27.46;18.54;100854.63;4970308;28;106108;-73
2022/01/19 12:06:38;;;;;;;8.07;6.32;;;;;;;27.39;18.57;100849.38;4968698;28;106884;-66
2022/01/19 12:09:07;;;;;;;8.30;6.38;;;;;;;27.09;18.50;100836.38;4969957;28;106061;-72
2022/01/19 12:11:35;;;;;;;9.37;6.23;;;;;;;27.10;18.59;100835.28;4971250;28;106061;-75
2022/01/19 12:16:54;;;;;;;9.80;7.35;;;;;;;26.72;18.75;100823.56;4967093;28;105904;-69
2022/01/19 12:19:23;;;;;;;11.00;6.30;;;;;;;26.42;18.88;100803.09;4970228;28;106013;-70
2022/01/19 12:21:55;;;;;;;12.18;7.82;;;;;;;26.29;18.91;100782.53;4971057;28;106039;-69
2022/01/19 12:24:58;;;;;;;9.57;7.15;;;;;;;26.40;18.65;100783.44;4970399;28;106148;-69
2022/01/19 12:27:29;;;;;;;9.77;7.10;;;;;;;26.24;18.76;100782.50;4967131;28;105985;-72
2022/01/19 12:30:27;;;;;;;10.40;7.28;;;;;;;25.67;19.19;100771.00;4968680;28;106118;-71
2022/01/19 12:32:54;;;;;;;10.13;6.93;;;;;;;25.73;18.96;100755.53;4969532;28;105983;-70
2022/01/19 12:35:19;;;;;;;9.15;7.05;;;;;;;25.83;18.97;100769.25;4969882;28;106139;-67
2022/01/19 12:37:46;;;;;;;11.30;7.28;;;;;;;26.25;19.17;100754.91;4969806;28;105918;-69
2022/01/19 12:40:18;;;;;;;10.30;7.32;;;;;;;26.85;18.29;100757.53;4969412;28;105974;-64
2022/01/19 12:42:45;;;;;;;10.82;7.82;;;;;;;26.84;18.81;100755.88;4970310;28;106216;-72
2022/01/19 12:45:22;;;;;;;11.55;7.50;;;;;;;27.07;18.80;100759.25;4970048;28;106112;-74
2022/01/19 12:47:58;;;;;;;12.52;8.23;;;;;;;28.23;18.16;100749.91;4969727;28;105936;-67
2022/01/19 12:50:29;;;;;;;13.68;8.93;;;;;;;28.53;17.43;100744.41;4969220;28;106198;-70
2022/01/19 12:52:57;;;;;;;12.82;7.65;;;;;;;28.57;17.91;100741.94;4968484;28;106126;-72
2022/01/19 12:55:29;;;;;;;11.20;8.45;;;;;;;28.56;17.62;100739.47;4969287;28;106155;-68
2022/01/19 12:57:55;;;;;;;12.35;8.20;;;;;;;28.65;17.54;100729.59;4968882;28;105899;-71
2022/01/19 13:00:24;;;;;;;11.43;7.60;;;;;;;28.63;17.72;100724.41;4968784;28;105783;-69
2022/01/19 13:02:49;;;;;;;12.52;8.13;;;;;;;28.88;17.36;100719.91;4969366;28;105930;-70
2022/01/19 13:05:19;;;;;;;12.18;8.63;;;;;;;28.96;16.78;100718.53;4968312;28;106462;-66
2022/01/19 13:07:53;;;;;;;12.80;7.85;;;;;;;28.05;17.28;100707.50;4968573;28;106484;-70
2022/01/19 13:16:08;;;;;;;11.85;7.45;;;;;;;27.32;18.21;100673.72;4966630;28;105973;-70
2022/01/19 13:18:43;;;;;;;14.13;8.30;;;;;;;27.61;18.30;100675.97;4968527;28;105938;-67
2022/01/19 13:21:14;;;;;;;12.02;7.90;;;;;;;28.08;17.92;100668.63;4968555;28;106074;-69
2022/01/19 13:23:53;;;;;;;13.05;8.77;;;;;;;28.24;17.72;100664.75;4969239;28;106519;-68
2022/01/19 13:26:19;;;;;;;10.52;8.32;;;;;;;27.94;18.23;100668.31;4968799;28;106169;-70
2022/01/19 13:28:45;;;;;;;11.80;7.80;;;;;;;27.42;18.43;100653.81;4968665;28;106076;-71
2022/01/19 13:31:18;;;;;;;11.85;8.30;;;;;;;26.59;18.70;100661.72;4968500;28;106113;-71
2022/01/19 13:33:53;;;;;;;13.50;8.10;;;;;;;25.93;19.07;100641.09;4969877;28;106211;-70
2022/01/19 13:36:24;;;;;;;13.07;8.93;;;;;;;25.27;19.35;100624.97;4968728;28;105997;-71
2022/01/19 13:38:51;;;;;;;13.57;8.95;;;;;;;24.89;19.80;100613.97;4968680;28;107198;-68
2022/01/19 13:41:17;;;;;;;11.52;8.77;;;;;;;24.68;20.08;100618.31;4967288;28;105997;-69
2022/01/19 13:43:42;;;;;;;12.38;8.70;;;;;;;24.17;20.56;100619.28;4969173;28;106285;-71
2022/01/19 13:46:15;;;;;;;10.80;8.50;;;;;;;24.13;20.61;100622.75;4968545;28;106151;-72
2022/01/19 13:48:45;;;;;;;12.07;8.90;;;;;;;23.23;21.46;100609.84;4968219;28;106006;-70
2022/01/19 13:51:14;;;;;;;12.57;8.90;;;;;;;23.41;21.20;100616.16;4967746;28;105970;-71
2022/01/19 13:53:49;;;;;;;15.03;9.50;;;;;;;23.25;21.37;100598.75;4968699;28;106433;-71
2022/01/19 13:56:23;;;;;;;13.23;9.35;;;;;;;23.01;21.78;100598.03;4966787;28;106200;-72
2022/01/19 13:58:55;;;;;;;12.45;8.98;;;;;;;22.68;22.09;100583.25;4968214;28;105990;-71
2022/01/19 14:01:48;;;;;;;17.48;10.10;;;;;;;22.67;22.32;100577.00;4964832;28;105930;-70
2022/01/19 14:04:13;;;;;;;12.05;8.77;;;;;;;22.92;21.81;100573.97;4958875;28;105887;-70
2022/01/19 16:54:26;;;;;;;24.17;12.60;;;;;;;-0.68;59.56;100281.59;5005251;28;106203;-67
2022/01/19 16:56:52;;;;;;;27.50;14.23;;;;;;;-0.73;59.35;100299.34;5000846;28;106636;-68
2022/01/19 16:59:17;;;;;;;30.73;14.43;;;;;;;-0.77;59.95;100282.16;5001965;28;106008;-68
2022/01/19 17:01:43;;;;;;;29.77;16.63;;;;;;;-0.80;59.94;100281.53;5000384;28;106446;-72
2022/01/19 17:04:08;;;;;;;31.35;16.70;;;;;;;-0.78;60.88;100269.19;4984062;28;106211;-69
2022/01/19 17:06:34;;;;;;;34.65;17.35;;;;;;;-0.73;60.88;100272.34;4984498;28;105912;-71
2022/01/19 17:08:59;;;;;;;36.85;18.20;;;;;;;-0.68;61.42;100260.66;4982247;28;106051;-72
2022/01/19 17:11:25;;;;;;;35.53;18.05;;;;;;;-0.59;61.97;100261.88;4983154;28;106083;-70
2022/01/19 17:14:04;;;;;;;33.65;17.17;;;;;;;-0.54;61.83;100251.94;4983301;28;106330;-66
2022/01/19 17:16:36;;;;;;;37.03;18.65;;;;;;;-0.54;62.00;100246.69;4984097;28;105753;-67
2022/01/19 17:19:02;;;;;;;36.58;18.30;;;;;;;-0.52;62.17;100233.50;4983586;28;106180;-66
2022/01/19 17:21:29;;;;;;;40.72;18.10;;;;;;;-0.51;62.04;100224.72;4983305;28;105915;-70
2022/01/19 17:23:56;;;;;;;42.30;20.58;;;;;;;-0.51;62.33;100227.34;4983272;28;106169;-72
2022/01/19 17:26:22;;;;;;;31.83;18.20;;;;;;;-0.53;61.96;100222.22;4983735;28;105917;-72
2022/01/19 17:28:47;;;;;;;27.50;14.70;;;;;;;-0.53;62.82;100210.94;4983381;28;105863;-70
2022/01/19 17:31:14;;;;;;;25.13;14.30;;;;;;;-0.51;62.27;100209.03;4983195;28;106545;-68
2022/01/19 17:33:41;;;;;;;29.73;15.82;;;;;;;-0.51;62.72;100219.50;4983473;28;106195;-71
2022/01/19 17:36:07;;;;;;;28.15;15.40;;;;;;;-0.50;63.20;100213.34;4984290;28;105821;-67
2022/01/19 17:38:33;;;;;;;30.98;16.42;;;;;;;-0.47;63.50;100209.69;4983350;28;106127;-63
2022/01/19 17:40:58;;;;;;;31.35;17.35;;;;;;;-0.49;63.21;100224.63;4982979;28;105923;-69
2022/01/19 17:43:24;;;;;;;36.97;18.20;;;;;;;-0.53;62.79;100218.78;4982431;28;106488;-66
2022/01/19 17:46:15;;;;;;;35.78;18.10;;;;;;;-0.57;62.65;100209.44;4983924;28;106157;-72
2022/01/19 17:53:39;;;;;;;42.28;21.08;;;;;;;-0.76;62.97;100194.91;4981804;28;105897;-76
2022/01/19 17:56:05;;;;;;;34.28;18.30;;;;;;;-0.78;63.63;100191.56;4984243;28;105946;-66
2022/01/19 17:58:30;;;;;;;43.53;19.70;;;;;;;-0.74;63.90;100200.88;4983824;28;105998;-69
2022/01/19 18:00:57;;;;;;;28.60;16.42;;;;;;;-0.69;64.21;100190.13;4983594;28;106178;-75
2022/01/19 18:03:23;;;;;;;40.38;21.60;;;;;;;-0.66;64.03;100187.31;4982999;28;105851;-67
2022/01/19 18:05:49;;;;;;;40.70;20.85;;;;;;;-0.65;64.16;100182.94;4970287;28;106032;-68
2022/01/19 18:08:14;;;;;;;39.60;19.88;;;;;;;-0.70;64.42;100178.84;4970196;28;106220;-68
2022/01/19 18:10:40;;;;;;;33.30;18.63;;;;;;;-0.70;64.12;100189.28;4969528;28;106533;-69
2022/01/19 18:13:05;;;;;;;33.70;18.23;;;;;;;-0.73;64.60;100189.47;4970927;28;107351;-67
2022/01/19 18:15:31;;;;;;;38.35;19.48;;;;;;;-0.75;64.37;100180.91;4973618;28;106379;-67
2022/01/19 18:17:56;;;;;;;38.05;21.48;;;;;;;-0.80;64.32;100177.72;4986196;28;106176;-69
2022/01/19 18:20:27;;;;;;;48.60;19.90;;;;;;;-0.86;64.43;100178.13;4974168;28;106052;-71
2022/01/19 18:22:52;;;;;;;29.90;16.58;;;;;;;-0.90;64.57;100172.25;4980665;28;106002;-67
2022/01/19 18:25:18;;;;;;;34.55;15.35;;;;;;;-0.89;64.49;100167.84;4982700;28;105997;-67
2022/01/19 18:27:46;;;;;;;26.08;15.27;;;;;;;-0.88;65.27;100159.06;4973502;28;106245;-71
2022/01/19 18:30:12;;;;;;;32.75;17.38;;;;;;;-0.87;65.19;100155.53;4988476;28;107270;-73
2022/01/19 18:32:38;;;;;;;29.00;16.50;;;;;;;-0.90;64.77;100140.84;4982824;28;106177;-71
2022/01/19 18:35:05;;;;;;;26.92;15.23;;;;;;;-0.87;65.31;100145.06;4987544;28;105880;-73
2022/01/19 18:37:31;;;;;;;28.52;13.82;;;;;;;-0.84;65.28;100134.38;4984100;28;106235;-73
2022/01/19 18:40:02;;;;;;;24.35;13.93;;;;;;;-0.77;65.99;100132.22;4977426;28;106068;-67
2022/01/19 18:42:27;;;;;;;15.57;9.65;;;;;;;-0.75;65.57;100128.56;4972041;28;106626;-71
2022/01/19 18:44:53;;;;;;;30.30;15.70;;;;;;;-0.71;65.62;100111.75;4980235;28;105999;-70
2022/01/19 18:47:18;;;;;;;32.80;15.55;;;;;;;-0.69;65.00;100116.88;4976330;28;106126;-72
2022/01/19 18:49:44;;;;;;;36.05;17.98;;;;;;;-0.69;65.54;100125.53;4985806;28;105933;-66
2022/01/19 18:52:09;;;;;;;24.05;15.38;;;;;;;-0.70;65.42;100126.50;4956222;28;106533;-67
2022/01/19 18:54:36;;;;;;;29.52;17.20;;;;;;;-0.73;65.40;100137.16;4982368;28;106450;-67
2022/01/19 18:57:02;;;;;;;31.98;18.10;;;;;;;-0.77;64.86;100150.53;4979790;28;106174;-65
2022/01/19 18:59:27;;;;;;;31.17;16.35;;;;;;;-0.82;65.31;100132.53;4988698;28;105840;-65
2022/01/19 19:01:53;;;;;;;35.35;15.80;;;;;;;-0.82;64.94;100132.53;4973871;28;106153;-65
2022/01/19 19:04:18;;;;;;;30.08;15.63;;;;;;;-0.77;65.47;100121.75;4969610;28;106153;-64
2022/01/19 19:06:46;;;;;;;34.17;15.65;;;;;;;-0.69;65.92;100117.69;4969056;28;106069;-67
2022/01/19 19:09:19;;;;;;;28.15;14.75;;;;;;;-0.64;65.73;100121.78;4968469;28;106443;-75
2022/01/19 19:14:13;;;;;;;24.55;13.05;;;;;;;-0.54;65.53;100121.09;4969706;28;106535;-75
2022/01/19 19:16:38;;;;;;;26.20;15.32;;;;;;;-0.52;65.84;100119.22;4966567;28;106554;-75
2022/01/19 19:19:09;;;;;;;26.95;14.65;;;;;;;-0.50;65.40;100111.28;4968952;28;106189;-76
2022/01/19 19:21:35;;;;;;;30.42;16.60;;;;;;;-0.49;65.62;100115.56;4969159;28;106319;-76
2022/01/19 19:24:01;;;;;;;38.30;17.98;;;;;;;-0.48;65.49;100117.22;4967690;28;105965;-76
2022/01/19 19:26:26;;;;;;;32.05;14.88;;;;;;;-0.48;64.98;100109.38;4969307;28;106308;-77
2022/01/19 19:28:51;;;;;;;25.75;14.15;;;;;;;-0.46;64.95;100111.91;4968821;28;105832;-75
2022/01/19 19:31:17;;;;;;;25.58;13.65;;;;;;;-0.48;65.07;100109.38;4968958;28;106206;-70
2022/01/19 19:33:42;;;;;;;23.95;13.07;;;;;;;-0.47;65.32;100110.22;4969602;28;106022;-77
2022/01/19 19:36:08;;;;;;;23.30;12.82;;;;;;;-0.48;65.50;100109.38;4969015;28;106159;-73
2022/01/19 19:38:36;;;;;;;24.48;12.93;;;;;;;-0.47;65.45;100103.22;4968665;28;106033;-64
2022/01/19 19:41:06;;;;;;;30.10;16.27;;;;;;;-0.44;65.37;100095.16;4979818;28;106647;-73
